createdAt,value
2018-04-09T00:00:20.189Z,0
2018-04-09T00:01:28.285Z,0
2018-04-09T00:02:36.286Z,0
2018-04-09T00:03:44.344Z,0
2018-04-09T00:04:52.406Z,0
2018-04-09T00:06:00.450Z,0
2018-04-09T00:07:08.539Z,0
2018-04-09T00:08:16.603Z,0
2018-04-09T00:09:24.638Z,0
2018-04-09T00:10:32.713Z,0
2018-04-09T00:11:40.741Z,0
2018-04-09T00:12:48.872Z,0
2018-04-09T00:13:56.907Z,0
2018-04-09T00:15:04.958Z,0
2018-04-09T00:16:13.027Z,0
2018-04-09T00:17:21.069Z,0
2018-04-09T00:18:29.150Z,0
2018-04-09T00:19:37.207Z,0
2018-04-09T00:20:45.259Z,0
2018-04-09T00:21:53.330Z,0
2018-04-09T00:23:01.372Z,0
2018-04-09T00:24:09.459Z,0
2018-04-09T00:25:17.524Z,0
2018-04-09T00:26:25.586Z,0
2018-04-09T00:27:33.646Z,0
2018-04-09T00:28:41.692Z,0
2018-04-09T00:29:49.753Z,0
2018-04-09T00:30:57.837Z,0
2018-04-09T00:32:05.882Z,0
2018-04-09T00:33:13.951Z,0
2018-04-09T00:34:22.009Z,0
2018-04-09T00:35:30.067Z,0
2018-04-09T00:36:38.130Z,0
2018-04-09T00:37:46.197Z,0
2018-04-09T00:38:54.249Z,0
2018-04-09T00:40:02.323Z,0
2018-04-09T00:41:10.352Z,0
2018-04-09T00:42:18.437Z,0
2018-04-09T00:43:26.494Z,0
2018-04-09T00:44:34.554Z,0
2018-04-09T00:45:42.621Z,0
2018-04-09T00:46:50.653Z,0
2018-04-09T00:47:58.740Z,0
2018-04-09T00:49:06.812Z,0
2018-04-09T00:50:14.875Z,0
2018-04-09T00:51:22.963Z,0
2018-04-09T00:52:30.952Z,0
2018-04-09T00:53:39.059Z,0
2018-04-09T00:54:47.124Z,0
2018-04-09T00:55:55.180Z,0
2018-04-09T00:57:03.227Z,0
2018-04-09T00:58:11.274Z,0
2018-04-09T00:59:19.361Z,0
2018-04-09T01:00:27.411Z,0
2018-04-09T01:01:35.481Z,0
2018-04-09T01:02:43.541Z,0
2018-04-09T01:03:51.626Z,0
2018-04-09T01:04:59.665Z,0
2018-04-09T01:06:07.731Z,0
2018-04-09T01:07:15.805Z,0
2018-04-09T01:08:23.853Z,0
2018-04-09T01:09:31.913Z,0
2018-04-09T01:10:39.987Z,0
2018-04-09T01:11:48.033Z,0
2018-04-09T01:12:56.086Z,0
2018-04-09T01:14:04.165Z,0
2018-04-09T01:15:12.211Z,0
2018-04-09T01:16:20.254Z,0
2018-04-09T01:17:28.341Z,0
2018-04-09T01:18:36.405Z,0
2018-04-09T01:19:44.472Z,0
2018-04-09T01:20:52.530Z,0
2018-04-09T01:22:00.588Z,0
2018-04-09T01:23:08.644Z,0
2018-04-09T01:24:16.705Z,0
2018-04-09T01:25:24.750Z,0
2018-04-09T01:26:32.828Z,0
2018-04-09T01:27:40.863Z,0
2018-04-09T01:28:48.945Z,0
2018-04-09T01:29:57.005Z,0
2018-04-09T01:31:05.097Z,0
2018-04-09T01:32:13.133Z,0
2018-04-09T01:33:21.192Z,0
2018-04-09T01:34:29.271Z,0
2018-04-09T01:35:37.333Z,0
2018-04-09T01:36:45.387Z,0
2018-04-09T01:37:53.458Z,0
2018-04-09T01:39:01.504Z,0
2018-04-09T01:40:09.568Z,0
2018-04-09T01:41:17.631Z,0
2018-04-09T01:42:25.679Z,0
2018-04-09T01:43:33.764Z,0
2018-04-09T01:44:41.818Z,0
2018-04-09T01:45:49.870Z,0
2018-04-09T01:46:57.950Z,0
2018-04-09T01:48:05.999Z,0
2018-04-09T01:49:14.051Z,0
2018-04-09T01:50:22.131Z,0
2018-04-09T01:51:30.173Z,0
2018-04-09T01:52:38.240Z,0
2018-04-09T01:53:46.297Z,0
2018-04-09T01:54:54.362Z,0
2018-04-09T01:56:02.428Z,0
2018-04-09T01:57:10.515Z,0
2018-04-09T01:58:18.559Z,0
2018-04-09T01:59:26.618Z,0
2018-04-09T02:00:34.677Z,0
2018-04-09T02:01:42.733Z,0
2018-04-09T02:02:50.767Z,0
2018-04-09T02:03:58.866Z,0
2018-04-09T02:05:06.935Z,0
2018-04-09T02:06:15.004Z,0
2018-04-09T02:07:23.056Z,0
2018-04-09T02:08:31.092Z,0
2018-04-09T02:09:39.178Z,0
2018-04-09T02:10:47.228Z,0
2018-04-09T02:11:55.303Z,0
2018-04-09T02:13:03.356Z,0
2018-04-09T02:14:11.398Z,0
2018-04-09T02:15:19.475Z,0
2018-04-09T02:16:27.539Z,0
2018-04-09T02:17:35.607Z,0
2018-04-09T02:18:43.659Z,0
2018-04-09T02:19:51.714Z,0
2018-04-09T02:20:59.780Z,0
2018-04-09T02:22:07.847Z,0
2018-04-09T02:23:15.896Z,0
2018-04-09T02:24:23.977Z,0
2018-04-09T02:25:32.032Z,0
2018-04-09T02:26:40.099Z,0
2018-04-09T02:27:48.174Z,0
2018-04-09T02:28:56.229Z,0
2018-04-09T02:30:04.285Z,0
2018-04-09T02:31:12.367Z,0
2018-04-09T02:32:20.392Z,0
2018-04-09T02:33:28.536Z,0
2018-04-09T02:34:36.548Z,0
2018-04-09T02:35:44.606Z,0
2018-04-09T02:36:52.638Z,0
2018-04-09T02:38:00.682Z,0
2018-04-09T02:39:08.770Z,0
2018-04-09T02:40:16.815Z,0
2018-04-09T02:41:24.895Z,0
2018-04-09T02:42:32.953Z,0
2018-04-09T02:43:40.980Z,0
2018-04-09T02:44:49.079Z,0
2018-04-09T02:45:57.140Z,0
2018-04-09T02:47:05.195Z,0
2018-04-09T02:48:13.246Z,0
2018-04-09T02:49:21.300Z,0
2018-04-09T02:50:29.380Z,0
2018-04-09T02:51:37.442Z,0
2018-04-09T02:52:45.492Z,0
2018-04-09T02:53:53.566Z,0
2018-04-09T02:55:01.618Z,0
2018-04-09T02:56:09.686Z,0
2018-04-09T02:57:17.747Z,0
2018-04-09T02:58:25.800Z,0
2018-04-09T02:59:33.871Z,0
2018-04-09T03:00:41.998Z,0
2018-04-09T03:01:50.000Z,0
2018-04-09T03:02:58.063Z,0
2018-04-09T03:04:06.112Z,0
2018-04-09T03:05:14.172Z,0
2018-04-09T03:06:22.240Z,0
2018-04-09T03:07:30.281Z,0
2018-04-09T03:08:38.370Z,0
2018-04-09T03:09:46.422Z,0
2018-04-09T03:10:54.484Z,0
2018-04-09T03:12:02.549Z,0
2018-04-09T03:13:10.591Z,0
2018-04-09T03:14:18.673Z,0
2018-04-09T03:15:26.736Z,0
2018-04-09T03:16:34.798Z,0
2018-04-09T03:17:42.858Z,0
2018-04-09T03:18:50.896Z,0
2018-04-09T03:19:58.986Z,0
2018-04-09T03:21:07.039Z,0
2018-04-09T03:22:15.098Z,0
2018-04-09T03:23:23.151Z,0
2018-04-09T03:24:31.216Z,0
2018-04-09T03:25:39.280Z,0
2018-04-09T03:26:47.337Z,0
2018-04-09T03:27:55.413Z,0
2018-04-09T03:29:03.488Z,0
2018-04-09T03:30:11.512Z,0
2018-04-09T03:31:19.591Z,0
2018-04-09T03:32:27.663Z,0
2018-04-09T03:33:35.727Z,0
2018-04-09T03:34:43.787Z,0
2018-04-09T03:35:51.870Z,0
2018-04-09T03:36:59.918Z,0
2018-04-09T03:38:07.980Z,0
2018-04-09T03:39:16.036Z,0
2018-04-09T03:40:24.090Z,0
2018-04-09T03:41:32.143Z,0
2018-04-09T03:42:40.216Z,0
2018-04-09T03:43:48.280Z,0
2018-04-09T03:44:56.324Z,0
2018-04-09T03:46:04.405Z,0
2018-04-09T03:47:12.443Z,0
2018-04-09T03:48:20.493Z,0
2018-04-09T03:49:28.583Z,0
2018-04-09T03:50:36.626Z,0
2018-04-09T03:51:44.699Z,0
2018-04-09T03:52:52.761Z,0
2018-04-09T03:54:00.802Z,0
2018-04-09T03:55:08.897Z,0
2018-04-09T03:56:16.948Z,0
2018-04-09T03:57:25.017Z,0
2018-04-09T03:58:33.082Z,0
2018-04-09T03:59:41.138Z,0
2018-04-09T04:00:49.192Z,0
2018-04-09T04:01:57.254Z,0
2018-04-09T04:03:05.316Z,0
2018-04-09T04:04:13.375Z,0
2018-04-09T04:05:21.425Z,0
2018-04-09T04:06:29.525Z,0
2018-04-09T04:07:37.550Z,0
2018-04-09T04:08:45.634Z,0
2018-04-09T04:09:53.689Z,0
2018-04-09T04:11:01.739Z,0
2018-04-09T04:12:09.804Z,0
2018-04-09T04:13:17.867Z,0
2018-04-09T04:14:25.935Z,0
2018-04-09T04:15:33.983Z,0
2018-04-09T04:16:42.049Z,0
2018-04-09T04:17:50.114Z,0
2018-04-09T04:18:58.179Z,0
2018-04-09T04:20:06.242Z,0
2018-04-09T04:21:14.301Z,4
2018-04-09T04:22:22.359Z,4
2018-04-09T04:23:30.476Z,4
2018-04-09T04:24:38.505Z,4
2018-04-09T04:25:46.543Z,4
2018-04-09T04:26:54.615Z,4
2018-04-09T04:28:02.674Z,8
2018-04-09T04:29:10.756Z,8
2018-04-09T04:30:18.815Z,8
2018-04-09T04:31:26.858Z,8
2018-04-09T04:32:34.935Z,8
2018-04-09T04:33:43.008Z,12
2018-04-09T04:34:51.070Z,12
2018-04-09T04:35:59.101Z,16
2018-04-09T04:37:07.157Z,20
2018-04-09T04:38:15.235Z,24
2018-04-09T04:39:23.508Z,32
2018-04-09T04:40:31.347Z,36
2018-04-09T04:41:39.406Z,48
2018-04-09T04:42:47.476Z,52
2018-04-09T04:43:55.524Z,60
2018-04-09T04:45:04.129Z,72
2018-04-09T04:46:11.670Z,80
2018-04-09T04:47:20.025Z,92
2018-04-09T04:48:27.799Z,104
2018-04-09T04:49:35.861Z,116
2018-04-09T04:50:43.916Z,132
2018-04-09T04:51:51.969Z,144
2018-04-09T04:53:00.094Z,160
2018-04-09T04:54:08.109Z,180
2018-04-09T04:55:16.161Z,196
2018-04-09T04:56:24.209Z,220
2018-04-09T04:57:32.817Z,240
2018-04-09T04:58:40.322Z,256
2018-04-09T04:59:48.390Z,276
2018-04-09T05:00:56.480Z,292
2018-04-09T05:02:04.532Z,312
2018-04-09T05:03:12.725Z,324
2018-04-09T05:04:20.931Z,328
2018-04-09T05:05:28.707Z,332
2018-04-09T05:06:36.778Z,340
2018-04-09T05:07:44.854Z,340
2018-04-09T05:08:53.091Z,344
2018-04-09T05:10:00.940Z,352
2018-04-09T05:11:09.007Z,360
2018-04-09T05:12:17.094Z,376
2018-04-09T05:13:25.147Z,400
2018-04-09T05:14:33.219Z,436
2018-04-09T05:15:41.264Z,480
2018-04-09T05:16:49.333Z,532
2018-04-09T05:17:57.414Z,572
2018-04-09T05:19:05.487Z,616
2018-04-09T05:20:13.549Z,660
2018-04-09T05:21:21.601Z,712
2018-04-09T05:22:29.658Z,760
2018-04-09T05:23:37.704Z,796
2018-04-09T05:24:45.785Z,832
2018-04-09T05:25:53.850Z,872
2018-04-09T05:27:01.904Z,900
2018-04-09T05:28:09.974Z,940
2018-04-09T05:29:18.045Z,980
2018-04-09T05:30:26.108Z,1028
2018-04-09T05:31:34.151Z,1080
2018-04-09T05:32:42.214Z,1132
2018-04-09T05:33:50.253Z,1196
2018-04-09T05:34:58.332Z,1268
2018-04-09T05:36:06.427Z,1340
2018-04-09T05:37:14.468Z,1408
2018-04-09T05:38:22.526Z,1472
2018-04-09T05:39:30.572Z,1528
2018-04-09T05:40:38.650Z,1576
2018-04-09T05:41:46.710Z,1616
2018-04-09T05:42:54.777Z,1656
2018-04-09T05:44:02.841Z,1692
2018-04-09T05:45:10.872Z,1740
2018-04-09T05:46:18.954Z,1788
2018-04-09T05:47:27.027Z,1848
2018-04-09T05:48:35.095Z,1904
2018-04-09T05:49:43.161Z,1972
2018-04-09T05:50:51.213Z,2048
2018-04-09T05:51:59.582Z,2136
2018-04-09T05:53:07.349Z,2224
2018-04-09T05:54:15.412Z,2304
2018-04-09T05:55:23.467Z,2380
2018-04-09T05:56:31.528Z,2444
2018-04-09T05:57:39.600Z,2500
2018-04-09T05:58:47.646Z,2556
2018-04-09T05:59:55.712Z,2600
2018-04-09T06:01:03.774Z,2632
2018-04-09T06:02:11.838Z,2652
2018-04-09T06:03:19.928Z,2660
2018-04-09T06:04:27.950Z,2672
2018-04-09T06:05:36.048Z,2692
2018-04-09T06:06:44.102Z,2720
2018-04-09T06:07:52.164Z,2752
2018-04-09T06:09:00.210Z,2812
2018-04-09T06:10:08.284Z,2888
2018-04-09T06:11:16.347Z,2984
2018-04-09T06:12:24.408Z,3104
2018-04-09T06:13:32.477Z,3228
2018-04-09T06:14:40.509Z,3360
2018-04-09T06:15:48.603Z,3500
2018-04-09T06:16:56.651Z,3644
2018-04-09T06:18:04.725Z,3784
2018-04-09T06:19:12.781Z,3908
2018-04-09T06:20:22.720Z,3996
2018-04-09T06:21:28.900Z,4048
2018-04-09T06:22:36.967Z,4132
2018-04-09T06:23:45.015Z,4236
2018-04-09T06:24:53.107Z,4292
2018-04-09T06:26:01.178Z,4324
2018-04-09T06:27:09.235Z,4308
2018-04-09T06:28:17.301Z,4240
2018-04-09T06:29:25.357Z,4128
2018-04-09T06:30:33.411Z,3932
2018-04-09T06:31:41.478Z,3840
2018-04-09T06:32:49.564Z,3808
2018-04-09T06:33:57.608Z,3744
2018-04-09T06:35:05.673Z,3628
2018-04-09T06:36:13.743Z,3576
2018-04-09T06:37:21.794Z,3572
2018-04-09T06:38:29.859Z,3616
2018-04-09T06:39:37.936Z,3756
2018-04-09T06:40:45.990Z,3948
2018-04-09T06:41:54.060Z,4140
2018-04-09T06:43:02.119Z,4276
2018-04-09T06:44:10.185Z,4416
2018-04-09T06:45:18.245Z,4584
2018-04-09T06:46:26.302Z,4728
2018-04-09T06:47:34.364Z,4888
2018-04-09T06:48:42.451Z,5060
2018-04-09T06:49:50.519Z,5256
2018-04-09T06:50:58.567Z,5492
2018-04-09T06:52:06.637Z,5748
2018-04-09T06:53:14.658Z,5988
2018-04-09T06:54:22.728Z,6192
2018-04-09T06:55:30.809Z,6328
2018-04-09T06:56:38.902Z,6396
2018-04-09T06:57:46.956Z,6416
2018-04-09T06:58:55.007Z,6444
2018-04-09T07:00:03.077Z,6488
2018-04-09T07:01:11.132Z,6580
2018-04-09T07:02:19.203Z,6712
2018-04-09T07:03:27.280Z,6880
2018-04-09T07:04:35.326Z,7064
2018-04-09T07:05:43.402Z,7228
2018-04-09T07:06:51.449Z,7328
2018-04-09T07:07:59.533Z,7296
2018-04-09T07:09:07.596Z,7124
2018-04-09T07:10:15.671Z,6864
2018-04-09T07:11:23.710Z,6612
2018-04-09T07:12:31.774Z,6176
2018-04-09T07:13:39.845Z,5852
2018-04-09T07:14:47.904Z,5680
2018-04-09T07:15:55.985Z,5612
2018-04-09T07:17:04.104Z,5588
2018-04-09T07:18:12.152Z,5640
2018-04-09T07:19:20.166Z,5768
2018-04-09T07:20:28.234Z,5960
2018-04-09T07:21:36.296Z,6116
2018-04-09T07:22:44.368Z,6132
2018-04-09T07:23:52.430Z,6152
2018-04-09T07:25:00.542Z,6128
2018-04-09T07:26:08.569Z,6080
2018-04-09T07:27:16.634Z,6024
2018-04-09T07:28:24.700Z,5992
2018-04-09T07:29:32.764Z,5996
2018-04-09T07:30:40.807Z,6036
2018-04-09T07:31:48.904Z,6148
2018-04-09T07:32:56.971Z,6384
2018-04-09T07:34:05.027Z,6724
2018-04-09T07:35:13.098Z,7124
2018-04-09T07:36:21.131Z,7540
2018-04-09T07:37:29.190Z,7912
2018-04-09T07:38:37.294Z,8212
2018-04-09T07:39:45.353Z,8424
2018-04-09T07:40:53.418Z,8592
2018-04-09T07:42:01.461Z,8736
2018-04-09T07:43:09.544Z,8872
2018-04-09T07:44:17.680Z,9016
2018-04-09T07:45:25.702Z,9120
2018-04-09T07:46:33.758Z,9216
2018-04-09T07:47:41.809Z,9304
2018-04-09T07:48:49.892Z,9400
2018-04-09T07:49:57.942Z,9520
2018-04-09T07:51:06.013Z,9676
2018-04-09T07:52:14.091Z,9896
2018-04-09T07:53:22.142Z,10080
2018-04-09T07:54:30.204Z,10156
2018-04-09T07:55:38.283Z,10264
2018-04-09T07:56:46.362Z,10412
2018-04-09T07:57:54.417Z,10632
2018-04-09T07:59:02.501Z,10904
2018-04-09T08:00:10.534Z,11252
2018-04-09T08:01:18.621Z,11672
2018-04-09T08:02:26.660Z,12072
2018-04-09T08:03:34.737Z,12444
2018-04-09T08:04:42.830Z,12692
2018-04-09T08:05:50.865Z,12800
2018-04-09T08:06:58.946Z,12832
2018-04-09T08:08:07.012Z,12900
2018-04-09T08:09:15.097Z,12972
2018-04-09T08:10:23.149Z,12980
2018-04-09T08:11:31.215Z,12864
2018-04-09T08:12:39.278Z,12692
2018-04-09T08:13:47.342Z,12440
2018-04-09T08:14:55.412Z,12160
2018-04-09T08:16:03.498Z,11884
2018-04-09T08:17:11.555Z,11664
2018-04-09T08:18:19.618Z,11508
2018-04-09T08:19:27.709Z,11412
2018-04-09T08:20:35.768Z,11392
2018-04-09T08:21:43.831Z,11436
2018-04-09T08:22:51.900Z,11452
2018-04-09T08:23:59.977Z,11400
2018-04-09T08:25:08.032Z,11236
2018-04-09T08:26:16.094Z,11028
2018-04-09T08:27:24.161Z,10944
2018-04-09T08:28:32.228Z,10600
2018-04-09T08:29:40.279Z,10392
2018-04-09T08:30:48.373Z,10384
2018-04-09T08:31:56.440Z,10720
2018-04-09T08:33:04.502Z,11172
2018-04-09T08:34:12.579Z,11568
2018-04-09T08:35:20.621Z,11976
2018-04-09T08:36:28.710Z,12364
2018-04-09T08:37:36.786Z,12712
2018-04-09T08:38:44.835Z,12944
2018-04-09T08:39:52.905Z,13028
2018-04-09T08:41:00.972Z,12984
2018-04-09T08:42:09.048Z,12844
2018-04-09T08:43:17.116Z,12588
2018-04-09T08:44:25.192Z,12344
2018-04-09T08:45:33.253Z,12156
2018-04-09T08:46:41.297Z,12032
2018-04-09T08:47:49.407Z,11924
2018-04-09T08:48:57.467Z,11820
2018-04-09T08:50:05.535Z,11736
2018-04-09T08:51:13.604Z,11704
2018-04-09T08:52:21.661Z,11680
2018-04-09T08:53:29.740Z,11640
2018-04-09T08:54:37.857Z,11564
2018-04-09T08:55:46.042Z,11468
2018-04-09T08:56:53.943Z,11384
2018-04-09T08:58:05.451Z,11308
2018-04-09T08:59:10.069Z,11264
2018-04-09T09:00:18.138Z,11300
2018-04-09T09:01:26.229Z,11396
2018-04-09T09:02:34.309Z,11608
2018-04-09T09:03:42.351Z,11948
2018-04-09T09:04:50.403Z,12396
2018-04-09T09:05:58.497Z,13176
2018-04-09T09:07:06.551Z,14176
2018-04-09T09:08:14.599Z,15036
2018-04-09T09:09:22.708Z,15852
2018-04-09T09:10:30.741Z,16584
2018-04-09T09:11:38.833Z,17376
2018-04-09T09:12:46.908Z,17792
2018-04-09T09:13:54.979Z,18016
2018-04-09T09:15:03.051Z,17888
2018-04-09T09:16:11.099Z,17632
2018-04-09T09:17:19.171Z,17312
2018-04-09T09:18:27.244Z,16824
2018-04-09T09:19:35.314Z,16580
2018-04-09T09:20:43.389Z,16356
2018-04-09T09:21:51.432Z,16152
2018-04-09T09:22:59.524Z,15984
2018-04-09T09:24:07.608Z,15848
2018-04-09T09:25:15.670Z,15768
2018-04-09T09:26:23.749Z,15840
2018-04-09T09:27:31.817Z,15988
2018-04-09T09:28:39.872Z,16164
2018-04-09T09:29:47.940Z,16336
2018-04-09T09:30:56.030Z,16584
2018-04-09T09:32:04.128Z,17056
2018-04-09T09:33:12.135Z,17312
2018-04-09T09:34:20.228Z,17408
2018-04-09T09:35:28.313Z,17440
2018-04-09T09:36:36.361Z,17408
2018-04-09T09:37:44.433Z,17344
2018-04-09T09:38:52.513Z,17216
2018-04-09T09:40:00.594Z,17152
2018-04-09T09:41:08.674Z,17248
2018-04-09T09:42:16.722Z,17408
2018-04-09T09:43:24.836Z,17728
2018-04-09T09:44:32.862Z,18208
2018-04-09T09:45:40.901Z,18656
2018-04-09T09:46:48.990Z,18816
2018-04-09T09:47:57.078Z,18784
2018-04-09T09:49:05.150Z,18752
2018-04-09T09:50:13.267Z,18688
2018-04-09T09:51:21.272Z,18656
2018-04-09T09:52:29.359Z,18816
2018-04-09T09:53:37.421Z,19072
2018-04-09T09:54:45.492Z,19168
2018-04-09T09:55:53.585Z,19296
2018-04-09T09:57:01.638Z,19296
2018-04-09T09:58:09.703Z,18944
2018-04-09T09:59:17.798Z,18464
2018-04-09T10:00:25.856Z,17856
2018-04-09T10:01:33.915Z,17216
2018-04-09T10:02:42.071Z,16524
2018-04-09T10:03:50.071Z,16176
2018-04-09T10:04:58.137Z,16008
2018-04-09T10:06:06.217Z,15940
2018-04-09T10:07:14.287Z,16028
2018-04-09T10:08:22.361Z,16340
2018-04-09T10:09:30.416Z,17056
2018-04-09T10:10:38.491Z,17568
2018-04-09T10:11:46.560Z,17888
2018-04-09T10:12:54.642Z,17952
2018-04-09T10:14:02.714Z,17792
2018-04-09T10:15:10.776Z,17600
2018-04-09T10:16:18.845Z,17344
2018-04-09T10:17:26.976Z,17120
2018-04-09T10:18:35.005Z,16720
2018-04-09T10:19:43.096Z,16524
2018-04-09T10:20:51.115Z,16348
2018-04-09T10:21:59.205Z,16188
2018-04-09T10:23:07.403Z,16092
2018-04-09T10:24:15.376Z,15992
2018-04-09T10:25:23.434Z,16124
2018-04-09T10:26:31.489Z,16436
2018-04-09T10:27:39.563Z,17024
2018-04-09T10:28:47.636Z,17408
2018-04-09T10:29:55.720Z,17792
2018-04-09T10:31:03.793Z,18016
2018-04-09T10:32:11.876Z,18112
2018-04-09T10:33:19.927Z,18112
2018-04-09T10:34:28.041Z,18048
2018-04-09T10:35:36.073Z,17920
2018-04-09T10:36:44.151Z,17728
2018-04-09T10:37:52.220Z,17568
2018-04-09T10:39:00.274Z,17504
2018-04-09T10:40:08.349Z,17440
2018-04-09T10:41:16.424Z,17664
2018-04-09T10:42:24.512Z,18304
2018-04-09T10:43:32.580Z,18816
2018-04-09T10:44:40.659Z,19168
2018-04-09T10:45:48.731Z,19136
2018-04-09T10:46:56.793Z,19040
2018-04-09T10:48:04.865Z,18912
2018-04-09T10:49:12.928Z,18816
2018-04-09T10:50:20.976Z,18752
2018-04-09T10:51:29.075Z,18688
2018-04-09T10:52:37.163Z,18720
2018-04-09T10:53:45.222Z,18656
2018-04-09T10:54:53.303Z,18752
2018-04-09T10:56:01.365Z,18816
2018-04-09T10:57:09.515Z,18816
2018-04-09T10:58:17.497Z,18912
2018-04-09T10:59:25.873Z,18784
2018-04-09T11:00:33.962Z,18592
2018-04-09T11:01:42.021Z,18368
2018-04-09T11:02:50.076Z,18048
2018-04-09T11:03:58.183Z,17696
2018-04-09T11:05:05.962Z,17216
2018-04-09T11:06:14.030Z,16608
2018-04-09T11:07:22.087Z,16428
2018-04-09T11:08:30.180Z,16356
2018-04-09T11:09:38.232Z,16520
2018-04-09T11:10:46.322Z,16800
2018-04-09T11:11:54.393Z,17376
2018-04-09T11:13:02.434Z,17696
2018-04-09T11:14:10.529Z,17600
2018-04-09T11:16:26.426Z,17632
2018-04-09T11:18:42.573Z,17824
2018-04-09T11:19:50.605Z,17920
2018-04-09T11:20:58.708Z,17920
2018-04-09T11:22:06.776Z,17792
2018-04-09T11:23:14.851Z,17632
2018-04-09T11:24:22.929Z,17408
2018-04-09T11:25:30.971Z,16976
2018-04-09T11:26:39.066Z,16812
2018-04-09T11:27:47.157Z,16772
2018-04-09T11:28:55.220Z,16772
2018-04-09T11:30:03.283Z,16732
2018-04-09T11:31:11.357Z,16636
2018-04-09T11:32:19.445Z,16460
2018-04-09T11:33:27.515Z,16288
2018-04-09T11:34:35.595Z,16200
2018-04-09T11:35:43.642Z,16160
2018-04-09T11:36:51.731Z,16192
2018-04-09T11:37:59.819Z,16312
2018-04-09T11:39:07.884Z,16500
2018-04-09T11:40:15.952Z,16680
2018-04-09T11:41:24.013Z,16816
2018-04-09T11:42:32.095Z,16856
2018-04-09T11:43:40.164Z,16784
2018-04-09T11:44:48.237Z,16608
2018-04-09T11:45:56.311Z,16412
2018-04-09T11:47:04.406Z,16264
2018-04-09T11:48:12.469Z,16232
2018-04-09T11:49:20.514Z,16384
2018-04-09T11:50:28.614Z,16744
2018-04-09T11:51:36.683Z,17408
2018-04-09T11:52:44.755Z,17920
2018-04-09T11:55:00.900Z,18592
2018-04-09T11:56:09.001Z,18688
2018-04-09T11:57:19.541Z,18592
2018-04-09T11:58:25.128Z,18400
2018-04-09T11:59:33.256Z,18112
2018-04-09T12:00:41.242Z,17728
2018-04-09T12:01:49.407Z,17344
2018-04-09T12:02:57.422Z,16748
2018-04-09T12:04:05.559Z,16316
2018-04-09T12:05:13.561Z,15880
2018-04-09T12:06:21.612Z,15524
2018-04-09T12:07:29.748Z,15252
2018-04-09T12:08:37.805Z,14996
2018-04-09T12:09:45.863Z,14800
2018-04-09T12:10:56.381Z,14688
2018-04-09T12:12:02.005Z,14568
2018-04-09T12:13:10.090Z,14484
2018-04-09T12:14:18.161Z,14544
2018-04-09T12:15:26.212Z,14700
2018-04-09T12:16:34.297Z,14852
2018-04-09T12:17:42.380Z,14968
2018-04-09T12:18:50.446Z,15064
2018-04-09T12:19:58.514Z,15092
2018-04-09T12:21:06.587Z,15040
2018-04-09T12:22:14.664Z,14968
2018-04-09T12:23:22.776Z,14900
2018-04-09T12:24:30.802Z,14876
2018-04-09T12:25:38.884Z,14924
2018-04-09T12:26:46.954Z,15036
2018-04-09T12:27:55.029Z,15176
2018-04-09T12:29:03.095Z,15432
2018-04-09T12:30:11.156Z,15584
2018-04-09T12:31:19.254Z,15308
2018-04-09T12:32:27.329Z,14656
2018-04-09T12:33:35.389Z,13664
2018-04-09T12:34:43.459Z,12576
2018-04-09T12:35:51.504Z,11560
2018-04-09T12:36:59.605Z,10688
2018-04-09T12:38:07.674Z,10008
2018-04-09T12:39:15.764Z,9648
2018-04-09T12:40:23.821Z,9668
2018-04-09T12:41:31.895Z,9856
2018-04-09T12:42:39.966Z,9896
2018-04-09T12:43:48.041Z,9768
2018-04-09T12:44:56.116Z,9596
2018-04-09T12:46:04.189Z,9376
2018-04-09T12:47:12.268Z,9084
2018-04-09T12:48:20.331Z,8788
2018-04-09T12:49:28.443Z,8620
2018-04-09T12:50:36.489Z,8628
2018-04-09T12:51:44.570Z,8772
2018-04-09T12:52:52.666Z,9024
2018-04-09T12:54:00.697Z,9320
2018-04-09T12:55:08.764Z,9516
2018-04-09T12:56:16.837Z,9580
2018-04-09T12:57:24.906Z,9624
2018-04-09T12:58:32.970Z,9812
2018-04-09T12:59:41.025Z,10244
2018-04-09T13:00:49.113Z,10816
2018-04-09T13:01:57.192Z,11460
2018-04-09T13:03:05.291Z,12160
2018-04-09T13:04:13.339Z,12872
2018-04-09T13:05:21.381Z,13468
2018-04-09T13:06:29.475Z,13940
2018-04-09T13:07:37.548Z,14216
2018-04-09T13:08:45.614Z,14464
2018-04-09T13:09:53.691Z,14640
2018-04-09T13:11:01.750Z,14512
2018-04-09T13:12:09.829Z,14180
2018-04-09T13:13:17.906Z,13856
2018-04-09T13:14:25.982Z,13672
2018-04-09T13:15:34.052Z,13684
2018-04-09T13:16:42.173Z,13696
2018-04-09T13:17:50.194Z,13668
2018-04-09T13:18:58.278Z,13500
2018-04-09T13:20:06.336Z,13264
2018-04-09T13:21:14.444Z,13200
2018-04-09T13:22:22.491Z,13368
2018-04-09T13:23:30.568Z,13760
2018-04-09T13:24:38.619Z,14344
2018-04-09T13:25:46.699Z,14764
2018-04-09T13:26:54.754Z,14916
2018-04-09T13:28:02.842Z,15028
2018-04-09T13:29:10.951Z,15176
2018-04-09T13:30:18.987Z,15288
2018-04-09T13:31:27.060Z,15232
2018-04-09T13:32:35.131Z,15208
2018-04-09T13:33:43.199Z,15248
2018-04-09T13:34:51.239Z,15400
2018-04-09T13:35:59.347Z,15708
2018-04-09T13:37:07.411Z,16236
2018-04-09T13:38:15.491Z,16740
2018-04-09T13:39:23.555Z,17376
2018-04-09T13:40:31.612Z,17920
2018-04-09T13:41:41.034Z,18016
2018-04-09T13:42:47.785Z,17824
2018-04-09T13:43:55.864Z,17600
2018-04-09T13:45:03.924Z,17312
2018-04-09T13:46:12.000Z,16604
2018-04-09T13:47:20.066Z,16016
2018-04-09T13:48:28.140Z,15588
2018-04-09T13:49:36.219Z,15392
2018-04-09T13:50:44.298Z,15192
2018-04-09T13:51:52.375Z,15128
2018-04-09T13:53:00.443Z,14744
2018-04-09T13:54:08.504Z,13812
2018-04-09T13:55:16.580Z,13008
2018-04-09T13:56:24.661Z,12544
2018-04-09T13:57:32.767Z,12216
2018-04-09T13:58:40.797Z,12156
2018-04-09T13:59:49.172Z,12012
2018-04-09T14:00:56.954Z,11536
2018-04-09T14:02:05.027Z,10856
2018-04-09T14:03:13.106Z,10288
2018-04-09T14:04:21.145Z,9820
2018-04-09T14:05:29.250Z,9400
2018-04-09T14:06:37.322Z,9156
2018-04-09T14:07:45.377Z,9088
2018-04-09T14:08:53.458Z,9020
2018-04-09T14:10:01.512Z,8824
2018-04-09T14:11:09.603Z,8528
2018-04-09T14:12:17.688Z,8252
2018-04-09T14:13:25.753Z,8020
2018-04-09T14:14:33.823Z,7888
2018-04-09T14:15:41.902Z,7756
2018-04-09T14:16:49.981Z,7624
2018-04-09T14:17:58.041Z,7528
2018-04-09T14:19:06.118Z,7504
2018-04-09T14:20:14.183Z,7564
2018-04-09T14:21:22.262Z,7728
2018-04-09T14:22:30.342Z,7940
2018-04-09T14:23:38.410Z,8196
2018-04-09T14:24:46.478Z,8476
2018-04-09T14:25:54.558Z,8756
2018-04-09T14:27:02.737Z,9012
2018-04-09T14:28:10.679Z,9128
2018-04-09T14:29:18.773Z,9100
2018-04-09T14:30:26.834Z,9008
2018-04-09T14:31:34.902Z,8940
2018-04-09T14:32:42.987Z,8956
2018-04-09T14:33:51.036Z,8940
2018-04-09T14:34:59.135Z,8824
2018-04-09T14:36:07.210Z,8668
2018-04-09T14:37:15.270Z,8576
2018-04-09T14:38:23.345Z,8592
2018-04-09T14:39:31.387Z,8596
2018-04-09T14:40:39.492Z,8456
2018-04-09T14:41:47.553Z,8212
2018-04-09T14:42:55.627Z,8024
2018-04-09T14:44:03.699Z,7964
2018-04-09T14:45:11.759Z,8016
2018-04-09T14:46:19.842Z,8196
2018-04-09T14:47:27.918Z,8432
2018-04-09T14:48:35.993Z,8652
2018-04-09T14:49:44.050Z,8788
2018-04-09T14:50:52.129Z,8828
2018-04-09T14:52:00.206Z,8812
2018-04-09T14:53:08.270Z,8756
2018-04-09T14:54:16.342Z,8672
2018-04-09T14:55:24.418Z,8588
2018-04-09T14:56:32.491Z,8516
2018-04-09T14:57:40.553Z,8440
2018-04-09T14:58:48.625Z,8428
2018-04-09T14:59:56.707Z,8496
2018-04-09T15:01:04.776Z,8704
2018-04-09T15:02:12.897Z,9004
2018-04-09T15:03:20.902Z,9416
2018-04-09T15:04:28.987Z,9804
2018-04-09T15:05:37.069Z,10104
2018-04-09T15:06:45.122Z,10268
2018-04-09T15:07:53.195Z,10316
2018-04-09T15:09:01.259Z,10304
2018-04-09T15:10:09.345Z,10240
2018-04-09T15:11:17.416Z,10120
2018-04-09T15:12:25.481Z,9976
2018-04-09T15:13:33.558Z,9788
2018-04-09T15:14:41.597Z,9596
2018-04-09T15:15:49.720Z,9420
2018-04-09T15:16:57.781Z,9220
2018-04-09T15:18:05.862Z,9020
2018-04-09T15:19:13.934Z,8820
2018-04-09T15:20:21.980Z,8592
2018-04-09T15:21:30.055Z,8400
2018-04-09T15:22:38.136Z,8204
2018-04-09T15:23:46.219Z,8020
2018-04-09T15:24:54.271Z,7832
2018-04-09T15:26:02.354Z,7696
2018-04-09T15:27:10.433Z,7604